createdAt,value
2023-01-28T02:00:32.207Z,-0.28
2023-01-28T02:01:31.822Z,-0.31
2023-01-28T02:02:31.999Z,-0.31
2023-01-28T02:03:31.879Z,-0.31
2023-01-28T02:04:31.836Z,-0.32
2023-01-28T02:05:31.822Z,-0.29
2023-01-28T02:06:31.827Z,-0.32
2023-01-28T02:07:31.872Z,-0.32
2023-01-28T02:08:31.752Z,-0.32
2023-01-28T02:09:31.790Z,-0.34
2023-01-28T02:10:31.739Z,-0.34
2023-01-28T02:11:31.746Z,-0.32
2023-01-28T02:12:31.759Z,-0.32
2023-01-28T02:13:34.722Z,-0.31
2023-01-28T02:14:32.103Z,-0.31
2023-01-28T02:15:31.683Z,-0.32
2023-01-28T02:16:31.736Z,-0.34
2023-01-28T02:17:31.663Z,-0.32
2023-01-28T02:18:31.691Z,-0.32
2023-01-28T02:19:31.658Z,-0.32
2023-01-28T02:20:31.621Z,-0.32
2023-01-28T02:21:31.620Z,-0.29
2023-01-28T02:22:31.649Z,-0.31
2023-01-28T02:23:31.654Z,-0.32
2023-01-28T02:24:31.590Z,-0.31
2023-01-28T02:25:31.612Z,-0.32
2023-01-28T02:26:31.575Z,-0.34
2023-01-28T02:27:31.589Z,-0.32
2023-01-28T02:28:34.714Z,-0.31
2023-01-28T02:29:31.554Z,-0.32
2023-01-28T02:30:31.587Z,-0.32
2023-01-28T02:31:31.655Z,-0.32
2023-01-28T02:32:31.596Z,-0.34
2023-01-28T02:33:31.498Z,-0.32
2023-01-28T02:34:31.517Z,-0.32
2023-01-28T02:35:31.517Z,-0.32
2023-01-28T02:36:31.505Z,-0.31
2023-01-28T02:37:31.500Z,-0.32
2023-01-28T02:38:31.508Z,-0.32
2023-01-28T02:39:31.452Z,-0.32
2023-01-28T02:40:31.464Z,-0.32
2023-01-28T02:41:31.427Z,-0.35
2023-01-28T02:42:31.424Z,-0.35
2023-01-28T02:43:34.435Z,-0.36
2023-01-28T02:44:31.440Z,-0.36
2023-01-28T02:45:31.385Z,-0.35
2023-01-28T02:46:31.489Z,-0.35
2023-01-28T02:47:31.386Z,-0.36
2023-01-28T02:48:31.355Z,-0.34
2023-01-28T02:49:31.392Z,-0.35
2023-01-28T02:50:31.327Z,-0.35
2023-01-28T02:51:31.349Z,-0.36
2023-01-28T02:52:31.322Z,-0.34
2023-01-28T02:53:31.327Z,-0.32
2023-01-28T02:54:31.329Z,-0.35
2023-01-28T02:55:31.305Z,-0.38
2023-01-28T02:56:31.301Z,-0.35
2023-01-28T02:57:31.265Z,-0.36
2023-01-28T02:58:34.260Z,-0.38
2023-01-28T02:59:31.326Z,-0.36
2023-01-28T03:00:31.266Z,-0.36
2023-01-28T03:01:31.254Z,-0.39
2023-01-28T03:02:31.264Z,-0.36
2023-01-28T03:03:31.242Z,-0.36
2023-01-28T03:04:31.200Z,-0.38
2023-01-28T03:05:31.211Z,-0.36
2023-01-28T03:06:31.251Z,-0.36
2023-01-28T03:07:31.420Z,-0.39
2023-01-28T03:08:31.158Z,-0.41
2023-01-28T03:09:31.159Z,-0.38
2023-01-28T03:10:31.130Z,-0.41
2023-01-28T03:11:31.126Z,-0.38
2023-01-28T03:12:31.110Z,-0.41
2023-01-28T03:13:34.106Z,-0.39
2023-01-28T03:14:31.146Z,-0.38
2023-01-28T03:15:31.089Z,-0.38
2023-01-28T03:16:31.103Z,-0.38
2023-01-28T03:17:31.248Z,-0.36
2023-01-28T03:18:31.052Z,-0.38
2023-01-28T03:19:31.052Z,-0.36
2023-01-28T03:20:31.035Z,-0.38
2023-01-28T03:21:31.062Z,-0.39
2023-01-28T03:22:31.080Z,-0.39
2023-01-28T03:23:31.020Z,-0.38
2023-01-28T03:24:31.021Z,-0.41
2023-01-28T03:25:30.993Z,-0.41
2023-01-28T03:26:30.974Z,-0.39
2023-01-28T03:27:31.079Z,-0.38
2023-01-28T03:28:33.960Z,-0.41
2023-01-28T03:29:30.965Z,-0.39
2023-01-28T03:30:30.955Z,-0.39
2023-01-28T03:31:30.959Z,-0.41
2023-01-28T03:32:30.940Z,-0.39
2023-01-28T03:33:30.900Z,-0.41
2023-01-28T03:34:30.895Z,-0.38
2023-01-28T03:35:30.911Z,-0.39
2023-01-28T03:36:30.894Z,-0.38
2023-01-28T03:37:30.891Z,-0.39
2023-01-28T03:38:30.864Z,-0.36
2023-01-28T03:39:30.874Z,-0.38
2023-01-28T03:40:30.865Z,-0.36
2023-01-28T03:41:30.921Z,-0.38
2023-01-28T03:42:30.832Z,-0.41
2023-01-28T03:43:33.814Z,-0.38
2023-01-28T03:44:30.815Z,-0.38
2023-01-28T03:45:30.806Z,-0.36
2023-01-28T03:46:30.848Z,-0.38
2023-01-28T03:47:30.800Z,-0.36
2023-01-28T03:48:30.762Z,-0.41
2023-01-28T03:49:30.749Z,-0.38
2023-01-28T03:50:30.766Z,-0.41
2023-01-28T03:51:30.774Z,-0.38
2023-01-28T03:52:30.743Z,-0.36
2023-01-28T03:53:30.717Z,-0.39
2023-01-28T03:54:30.737Z,-0.38
2023-01-28T03:55:30.705Z,-0.38
2023-01-28T03:56:30.706Z,-0.39
2023-01-28T03:57:30.663Z,-0.36
2023-01-28T03:58:33.695Z,-0.38
2023-01-28T03:59:30.698Z,-0.38
2023-01-28T04:00:30.639Z,-0.38
2023-01-28T04:01:30.697Z,-0.38
2023-01-28T04:02:30.670Z,-0.36
2023-01-28T04:03:30.607Z,-0.38
2023-01-28T04:04:30.610Z,-0.36
2023-01-28T04:05:30.618Z,-0.41
2023-01-28T04:06:30.643Z,-0.39
2023-01-28T04:07:30.605Z,-0.39
2023-01-28T04:08:30.618Z,-0.39
2023-01-28T04:09:30.548Z,-0.39
2023-01-28T04:10:30.554Z,-0.39
2023-01-28T04:11:30.555Z,-0.39
2023-01-28T04:12:30.547Z,-0.43
2023-01-28T04:13:33.508Z,-0.41
2023-01-28T04:14:30.573Z,-0.41
2023-01-28T04:15:30.517Z,-0.41
2023-01-28T04:16:30.530Z,-0.39
2023-01-28T04:17:30.667Z,-0.36
2023-01-28T04:18:30.495Z,-0.39
2023-01-28T04:19:30.478Z,-0.36
2023-01-28T04:20:31.427Z,-0.36
2023-01-28T04:21:30.458Z,-0.36
2023-01-28T04:22:30.483Z,-0.36
2023-01-28T04:23:30.410Z,-0.35
2023-01-28T04:24:30.452Z,-0.36
2023-01-28T04:25:30.414Z,-0.39
2023-01-28T04:26:30.431Z,-0.36
2023-01-28T04:27:30.388Z,-0.35
2023-01-28T04:28:33.371Z,-0.36
2023-01-28T04:29:30.390Z,-0.35
2023-01-28T04:30:30.393Z,-0.35
2023-01-28T04:31:30.412Z,-0.35
2023-01-28T04:32:30.377Z,-0.36
2023-01-28T04:33:30.318Z,-0.36
2023-01-28T04:34:30.297Z,-0.35
2023-01-28T04:35:30.335Z,-0.35
2023-01-28T04:36:30.323Z,-0.36
2023-01-28T04:37:30.319Z,-0.35
2023-01-28T04:38:30.286Z,-0.35
2023-01-28T04:39:30.303Z,-0.39
2023-01-28T04:40:30.241Z,-0.39
2023-01-28T04:41:30.268Z,-0.39
2023-01-28T04:42:30.272Z,-0.36
2023-01-28T04:43:33.289Z,-0.35
2023-01-28T04:44:30.318Z,-0.38
2023-01-28T04:45:30.283Z,-0.34
2023-01-28T04:46:30.321Z,-0.34
2023-01-28T04:47:30.206Z,-0.32
2023-01-28T04:48:30.258Z,-0.34
2023-01-28T04:49:30.220Z,-0.34
2023-01-28T04:50:30.190Z,-0.32
2023-01-28T04:51:30.272Z,-0.32
2023-01-28T04:52:30.177Z,-0.32
2023-01-28T04:53:30.239Z,-0.34
2023-01-28T04:54:30.132Z,-0.35
2023-01-28T04:55:30.178Z,-0.34
2023-01-28T04:56:30.144Z,-0.34
2023-01-28T04:57:30.082Z,-0.34
2023-01-28T04:58:33.128Z,-0.29
2023-01-28T04:59:30.094Z,-0.31
2023-01-28T05:00:30.101Z,-0.31
2023-01-28T05:01:30.068Z,-0.31
2023-01-28T05:02:30.078Z,-0.32
2023-01-28T05:03:30.056Z,-0.29
2023-01-28T05:04:30.085Z,-0.31
2023-01-28T05:05:30.068Z,-0.34
2023-01-28T05:06:30.027Z,-0.31
2023-01-28T05:07:30.180Z,-0.29
2023-01-28T05:08:29.979Z,-0.31
2023-01-28T05:09:29.983Z,-0.32
2023-01-28T05:10:29.989Z,-0.31
2023-01-28T05:11:29.947Z,-0.28
2023-01-28T05:12:29.932Z,-0.31
2023-01-28T05:13:32.959Z,-0.29
2023-01-28T05:14:29.988Z,-0.29
2023-01-28T05:15:29.968Z,-0.31
2023-01-28T05:16:29.885Z,-0.28
2023-01-28T05:17:29.914Z,-0.31
2023-01-28T05:18:29.871Z,-0.28
2023-01-28T05:19:29.910Z,-0.31
2023-01-28T05:20:29.846Z,-0.29
2023-01-28T05:21:29.839Z,-0.29
2023-01-28T05:22:29.865Z,-0.31
2023-01-28T05:23:29.847Z,-0.31
2023-01-28T05:24:29.853Z,-0.29
2023-01-28T05:25:29.824Z,-0.29
2023-01-28T05:26:29.814Z,-0.29
2023-01-28T05:27:29.770Z,-0.29
2023-01-28T05:28:32.803Z,-0.28
2023-01-28T05:29:29.794Z,-0.29
2023-01-28T05:30:29.938Z,-0.31
2023-01-28T05:31:30.709Z,-0.29
2023-01-28T05:32:29.968Z,-0.29
2023-01-28T05:33:29.721Z,-0.28
2023-01-28T05:34:29.756Z,-0.29
2023-01-28T05:35:29.746Z,-0.28
2023-01-28T05:36:29.809Z,-0.31
2023-01-28T05:37:29.686Z,-0.28
2023-01-28T05:38:29.679Z,-0.29
2023-01-28T05:39:29.695Z,-0.29
2023-01-28T05:40:29.647Z,-0.29
2023-01-28T05:41:29.658Z,-0.31
2023-01-28T05:42:29.627Z,-0.29
2023-01-28T05:43:32.645Z,-0.29
2023-01-28T05:44:29.657Z,-0.32
2023-01-28T05:45:29.705Z,-0.32
2023-01-28T05:46:29.615Z,-0.29
2023-01-28T05:47:29.617Z,-0.32
2023-01-28T05:48:29.588Z,-0.29
2023-01-28T05:49:29.589Z,-0.32
2023-01-28T05:50:29.587Z,-0.31
2023-01-28T05:51:29.551Z,-0.26
2023-01-28T05:52:29.529Z,-0.29
2023-01-28T05:53:29.517Z,-0.28
2023-01-28T05:54:29.633Z,-0.29
2023-01-28T05:55:29.500Z,-0.29
2023-01-28T05:56:29.520Z,-0.31
2023-01-28T05:57:29.539Z,-0.29
2023-01-28T05:58:32.468Z,-0.28
2023-01-28T05:59:29.495Z,-0.26
2023-01-28T06:00:29.467Z,-0.29
2023-01-28T06:01:29.468Z,-0.28
2023-01-28T06:02:29.464Z,-0.26
2023-01-28T06:03:29.451Z,-0.28
2023-01-28T06:04:29.410Z,-0.26
2023-01-28T06:05:29.491Z,-0.26
2023-01-28T06:06:29.428Z,-0.28
2023-01-28T06:07:29.410Z,-0.26
2023-01-28T06:08:29.509Z,-0.28
2023-01-28T06:09:29.392Z,-0.28
2023-01-28T06:10:29.378Z,-0.28
2023-01-28T06:11:29.340Z,-0.31
2023-01-28T06:12:29.351Z,-0.26
2023-01-28T06:13:32.318Z,-0.28
2023-01-28T06:14:29.338Z,-0.29
2023-01-28T06:15:29.377Z,-0.26
2023-01-28T06:16:29.291Z,-0.28
2023-01-28T06:17:29.309Z,-0.29
2023-01-28T06:18:29.305Z,-0.26
2023-01-28T06:19:29.285Z,-0.28
2023-01-28T06:20:29.262Z,-0.28
2023-01-28T06:21:30.279Z,-0.26
2023-01-28T06:22:29.258Z,-0.26
2023-01-28T06:23:29.393Z,-0.28
2023-01-28T06:24:29.277Z,-0.28
2023-01-28T06:25:29.222Z,-0.28
2023-01-28T06:26:29.214Z,-0.26
2023-01-28T06:27:29.211Z,-0.28
2023-01-28T06:28:32.205Z,-0.26
2023-01-28T06:29:29.180Z,-0.26
2023-01-28T06:30:29.180Z,-0.29
2023-01-28T06:31:29.142Z,-0.25
2023-01-28T06:32:29.208Z,-0.29
2023-01-28T06:33:29.153Z,-0.29
2023-01-28T06:34:29.136Z,-0.28
2023-01-28T06:35:29.123Z,-0.28
2023-01-28T06:36:29.116Z,-0.26
2023-01-28T06:37:29.083Z,-0.28
2023-01-28T06:38:29.054Z,-0.25
2023-01-28T06:39:29.113Z,-0.26
2023-01-28T06:40:29.079Z,-0.25
2023-01-28T06:41:29.114Z,-0.28
2023-01-28T06:42:29.057Z,-0.25
2023-01-28T06:43:32.049Z,-0.25
2023-01-28T06:44:29.012Z,-0.26
2023-01-28T06:45:29.026Z,-0.25
2023-01-28T06:46:29.128Z,-0.25
2023-01-28T06:47:29.006Z,-0.23
2023-01-28T06:48:30.134Z,-0.25
2023-01-28T06:49:28.930Z,-0.28
2023-01-28T06:50:28.932Z,-0.26
2023-01-28T06:51:28.927Z,-0.23
2023-01-28T06:52:28.907Z,-0.25
2023-01-28T06:53:28.915Z,-0.25
2023-01-28T06:54:28.925Z,-0.25
2023-01-28T06:55:28.860Z,-0.28
2023-01-28T06:56:28.875Z,-0.25
2023-01-28T06:57:28.825Z,-0.25
2023-01-28T06:58:31.844Z,-0.21
2023-01-28T06:59:28.829Z,-0.23
2023-01-28T07:00:28.861Z,-0.23
2023-01-28T07:01:28.826Z,-0.23
2023-01-28T07:02:28.808Z,-0.23
2023-01-28T07:03:28.802Z,-0.23
2023-01-28T07:04:28.761Z,-0.23
2023-01-28T07:05:28.775Z,-0.23
2023-01-28T07:06:28.756Z,-0.23
2023-01-28T07:07:28.835Z,-0.23
2023-01-28T07:08:28.754Z,-0.21
2023-01-28T07:09:28.706Z,-0.20
2023-01-28T07:10:28.720Z,-0.23
2023-01-28T07:11:28.717Z,-0.21
2023-01-28T07:12:28.714Z,-0.20
2023-01-28T07:13:31.699Z,-0.23
2023-01-28T07:14:28.698Z,-0.20
2023-01-28T07:15:28.651Z,-0.21
2023-01-28T07:16:28.784Z,-0.21
2023-01-28T07:17:28.717Z,-0.21
2023-01-28T07:18:28.650Z,-0.20
2023-01-28T07:19:28.616Z,-0.20
2023-01-28T07:20:28.639Z,-0.20
2023-01-28T07:21:28.640Z,-0.20
2023-01-28T07:22:28.599Z,-0.20
2023-01-28T07:23:29.177Z,-0.18
2023-01-28T07:24:28.675Z,-0.17
2023-01-28T07:25:28.587Z,-0.18
2023-01-28T07:26:28.551Z,-0.18
2023-01-28T07:27:28.577Z,-0.15
2023-01-28T07:28:31.558Z,-0.15
2023-01-28T07:29:28.530Z,-0.15
2023-01-28T07:30:28.550Z,-0.14
2023-01-28T07:31:28.723Z,-0.14
2023-01-28T07:32:28.511Z,-0.14
2023-01-28T07:33:28.470Z,-0.10
2023-01-28T07:34:28.504Z,-0.13
2023-01-28T07:35:28.466Z,-0.13
2023-01-28T07:36:28.472Z,-0.13
2023-01-28T07:37:28.459Z,-0.11
2023-01-28T07:38:28.459Z,-0.13
2023-01-28T07:39:28.419Z,-0.13
2023-01-28T07:40:28.452Z,-0.11
2023-01-28T07:41:28.409Z,-0.08
2023-01-28T07:42:28.520Z,-0.10
2023-01-28T07:43:31.383Z,-0.07
2023-01-28T07:44:28.417Z,-0.06
2023-01-28T07:45:28.371Z,-0.07
2023-01-28T07:46:28.383Z,-0.03
2023-01-28T07:47:28.456Z,-0.03
2023-01-28T07:48:28.365Z,-0.03
2023-01-28T07:49:28.346Z,-0.02
2023-01-28T07:50:28.374Z,-0.02
2023-01-28T07:51:28.325Z,-0.02
2023-01-28T07:52:28.287Z,-0.03
2023-01-28T07:53:28.341Z,-0.02
2023-01-28T07:54:28.303Z,0.00
2023-01-28T07:55:31.166Z,-0.02
2023-01-28T07:56:28.290Z,0.04
2023-01-28T07:57:28.262Z,0.04
2023-01-28T07:58:31.406Z,0.05
2023-01-28T07:59:28.270Z,0.07
2023-01-28T08:00:28.325Z,0.08
2023-01-28T08:01:28.241Z,0.10
2023-01-28T08:02:28.216Z,0.12
2023-01-28T08:03:28.231Z,0.15
2023-01-28T08:04:28.291Z,0.16
2023-01-28T08:05:28.341Z,0.16
2023-01-28T08:06:28.181Z,0.18
2023-01-28T08:07:28.140Z,0.19
2023-01-28T08:08:28.174Z,0.18
2023-01-28T08:09:28.158Z,0.18
2023-01-28T08:10:28.118Z,0.16
2023-01-28T08:11:28.117Z,0.16
2023-01-28T08:12:28.124Z,0.18
2023-01-28T08:13:31.171Z,0.16
2023-01-28T08:14:28.089Z,0.19
2023-01-28T08:15:28.124Z,0.22
2023-01-28T08:16:28.263Z,0.22
2023-01-28T08:17:29.220Z,0.23
2023-01-28T08:18:28.055Z,0.22
2023-01-28T08:19:28.046Z,0.18
2023-01-28T08:20:28.036Z,0.16
2023-01-28T08:21:28.162Z,0.18
2023-01-28T08:22:29.134Z,0.16
2023-01-28T08:23:28.174Z,0.15
2023-01-28T08:24:28.021Z,0.15
2023-01-28T08:25:27.967Z,0.18
2023-01-28T08:26:27.984Z,0.16
2023-01-28T08:27:27.967Z,0.16
2023-01-28T08:28:30.980Z,0.15
2023-01-28T08:29:27.968Z,0.15
2023-01-28T08:30:27.962Z,0.18
2023-01-28T08:31:27.971Z,0.16
2023-01-28T08:32:27.991Z,0.18
2023-01-28T08:33:27.919Z,0.18
2023-01-28T08:34:27.866Z,0.19
2023-01-28T08:35:27.875Z,0.19
2023-01-28T08:36:27.877Z,0.22
2023-01-28T08:37:27.847Z,0.23
2023-01-28T08:38:27.860Z,0.25
2023-01-28T08:39:27.971Z,0.29
2023-01-28T08:40:27.858Z,0.28
2023-01-28T08:41:27.808Z,0.31
2023-01-28T08:42:27.816Z,0.31
2023-01-28T08:43:30.885Z,0.34
2023-01-28T08:44:27.824Z,0.36
2023-01-28T08:45:28.152Z,0.34
2023-01-28T08:46:27.824Z,0.36
2023-01-28T08:47:27.769Z,0.34
2023-01-28T08:48:27.734Z,0.36
2023-01-28T08:49:27.728Z,0.32
2023-01-28T08:50:27.745Z,0.36
2023-01-28T08:51:27.771Z,0.39
2023-01-28T08:52:27.698Z,0.41
2023-01-28T08:53:27.691Z,0.41
2023-01-28T08:54:27.710Z,0.40
2023-01-28T08:55:27.670Z,0.40
2023-01-28T08:56:27.717Z,0.39
2023-01-28T08:57:27.670Z,0.40
2023-01-28T08:58:30.756Z,0.43
2023-01-28T08:59:27.890Z,0.43
2023-01-28T09:00:29.858Z,0.43
2023-01-28T09:01:35.321Z,0.41
2023-01-28T09:02:32.003Z,0.44
2023-01-28T09:03:27.891Z,0.43
2023-01-28T09:04:27.602Z,0.44
2023-01-28T09:05:27.579Z,0.43
2023-01-28T09:06:27.564Z,0.43
2023-01-28T09:07:27.619Z,0.41
2023-01-28T09:08:27.577Z,0.46
2023-01-28T09:09:27.568Z,0.44
2023-01-28T09:10:27.674Z,0.44
2023-01-28T09:11:27.517Z,0.44
2023-01-28T09:12:27.520Z,0.41
2023-01-28T09:13:30.491Z,0.43
2023-01-28T09:14:27.601Z,0.41
2023-01-28T09:15:27.515Z,0.43
2023-01-28T09:16:27.509Z,0.44
2023-01-28T09:17:27.456Z,0.43
2023-01-28T09:18:27.500Z,0.44
2023-01-28T09:19:27.464Z,0.46
2023-01-28T09:20:27.443Z,0.49
2023-01-28T09:21:27.421Z,0.49
2023-01-28T09:22:27.434Z,0.49
2023-01-28T09:23:27.403Z,0.49
2023-01-28T09:24:27.404Z,0.50
2023-01-28T09:25:27.407Z,0.52
2023-01-28T09:26:27.400Z,0.52
2023-01-28T09:27:27.358Z,0.50
2023-01-28T09:28:30.359Z,0.47
2023-01-28T09:29:27.355Z,0.47
2023-01-28T09:30:27.358Z,0.50
2023-01-28T09:31:28.451Z,0.50
2023-01-28T09:32:27.346Z,0.50
2023-01-28T09:33:27.364Z,0.52
2023-01-28T09:34:27.313Z,0.55
2023-01-28T09:35:27.276Z,0.55
2023-01-28T09:36:27.301Z,0.52
2023-01-28T09:37:27.276Z,0.49
2023-01-28T09:38:27.247Z,0.52
2023-01-28T09:39:27.266Z,0.52
2023-01-28T09:40:27.331Z,0.52
2023-01-28T09:41:27.259Z,0.52
2023-01-28T09:42:27.234Z,0.52
2023-01-28T09:43:30.259Z,0.49
2023-01-28T09:44:27.236Z,0.47
2023-01-28T09:45:27.212Z,0.46
2023-01-28T09:46:27.214Z,0.47
2023-01-28T09:47:27.187Z,0.49
2023-01-28T09:48:27.177Z,0.49
2023-01-28T09:49:27.151Z,0.55
2023-01-28T09:50:27.135Z,0.58
2023-01-28T09:51:27.147Z,0.56
2023-01-28T09:52:27.115Z,0.56
2023-01-28T09:53:27.099Z,0.59
2023-01-28T09:54:27.127Z,0.58
2023-01-28T09:55:27.123Z,0.56
2023-01-28T09:56:27.098Z,0.58
2023-01-28T09:57:27.056Z,0.59
2023-01-28T09:58:30.079Z,0.59
2023-01-28T09:59:27.053Z,0.58
2023-01-28T10:00:27.094Z,0.56
2023-01-28T10:01:27.227Z,0.55
2023-01-28T10:02:27.054Z,0.55
2023-01-28T10:03:27.085Z,0.49
2023-01-28T10:04:27.039Z,0.50
2023-01-28T10:05:27.008Z,0.50
2023-01-28T10:06:26.978Z,0.49
2023-01-28T10:07:26.958Z,0.49
2023-01-28T10:08:26.987Z,0.49
2023-01-28T10:09:26.973Z,0.50
2023-01-28T10:10:26.967Z,0.50
2023-01-28T10:11:26.918Z,0.55
2023-01-28T10:12:27.059Z,0.55
2023-01-28T10:13:29.931Z,0.58
2023-01-28T10:14:26.917Z,0.59
2023-01-28T10:15:26.886Z,0.60
2023-01-28T10:16:26.944Z,0.60
2023-01-28T10:17:26.944Z,0.59
2023-01-28T10:18:26.850Z,0.58
2023-01-28T10:19:26.857Z,0.58
2023-01-28T10:20:26.868Z,0.59
2023-01-28T10:21:26.902Z,0.58
2023-01-28T10:22:26.828Z,0.60
2023-01-28T10:23:26.836Z,0.59
2023-01-28T10:24:26.847Z,0.62
2023-01-28T10:25:26.811Z,0.63
2023-01-28T10:26:26.804Z,0.66
2023-01-28T10:27:26.761Z,0.63
2023-01-28T10:28:29.777Z,0.66
2023-01-28T10:29:26.772Z,0.69
2023-01-28T10:30:26.748Z,0.73
2023-01-28T10:31:26.759Z,0.69
2023-01-28T10:32:26.781Z,0.74
2023-01-28T10:33:26.747Z,0.77
2023-01-28T10:34:26.716Z,0.78
2023-01-28T10:35:26.683Z,0.81
2023-01-28T10:36:26.673Z,0.84
2023-01-28T10:37:26.669Z,0.83
2023-01-28T10:38:26.789Z,0.80
2023-01-28T10:39:26.672Z,0.83
2023-01-28T10:40:26.631Z,0.83
2023-01-28T10:41:26.659Z,0.88
2023-01-28T10:42:26.645Z,0.87
2023-01-28T10:43:29.635Z,0.92
2023-01-28T10:44:26.633Z,0.91
2023-01-28T10:45:26.591Z,0.92
2023-01-28T10:46:26.619Z,0.94
2023-01-28T10:47:28.066Z,0.92
2023-01-28T10:48:26.567Z,0.92
2023-01-28T10:49:26.556Z,0.92
2023-01-28T10:50:26.586Z,0.91
2023-01-28T10:51:26.541Z,0.87
2023-01-28T10:52:26.518Z,0.88
2023-01-28T10:53:27.195Z,0.86
2023-01-28T10:54:26.495Z,0.88
2023-01-28T10:55:26.534Z,0.88
2023-01-28T10:56:26.520Z,0.87
2023-01-28T10:57:26.494Z,0.91
2023-01-28T10:58:29.482Z,0.87
2023-01-28T10:59:26.496Z,0.87
2023-01-28T11:00:26.437Z,0.87
2023-01-28T11:01:26.661Z,0.92
2023-01-28T11:02:26.501Z,0.94
2023-01-28T11:03:26.436Z,0.94
2023-01-28T11:04:26.400Z,0.92
2023-01-28T11:05:26.388Z,0.94
2023-01-28T11:06:26.410Z,0.95
2023-01-28T11:07:26.361Z,0.98
2023-01-28T11:08:26.361Z,0.98
2023-01-28T11:09:26.390Z,0.95
2023-01-28T11:10:26.345Z,0.98
2023-01-28T11:11:26.356Z,0.98
2023-01-28T11:12:26.340Z,1.01
2023-01-28T11:13:29.344Z,1.02
2023-01-28T11:14:26.297Z,1.04
2023-01-28T11:15:26.299Z,1.06
2023-01-28T11:16:26.319Z,1.05
2023-01-28T11:17:26.297Z,1.08
2023-01-28T11:18:26.293Z,1.08
2023-01-28T11:19:26.323Z,1.06
2023-01-28T11:20:26.267Z,1.08
2023-01-28T11:21:26.268Z,1.06
2023-01-28T11:22:26.249Z,1.06
2023-01-28T11:23:26.205Z,1.06
2023-01-28T11:24:26.339Z,1.05
2023-01-28T11:25:26.211Z,1.04
2023-01-28T11:26:26.394Z,1.04
2023-01-28T11:27:26.188Z,1.04
2023-01-28T11:28:29.151Z,1.05
2023-01-28T11:29:26.174Z,1.02
2023-01-28T11:30:26.148Z,1.01
2023-01-28T11:31:26.310Z,1.02
2023-01-28T11:32:26.145Z,1.02
2023-01-28T11:33:26.138Z,1.02
2023-01-28T11:34:26.091Z,1.05
2023-01-28T11:35:26.078Z,1.08
2023-01-28T11:36:26.068Z,1.10
2023-01-28T11:37:26.252Z,1.12
2023-01-28T11:38:26.055Z,1.10
2023-01-28T11:39:26.067Z,1.14
2023-01-28T11:40:26.088Z,1.14
2023-01-28T11:41:26.061Z,1.12
2023-01-28T11:42:26.037Z,1.12
2023-01-28T11:43:29.136Z,1.06
2023-01-28T11:44:26.008Z,1.05
2023-01-28T11:45:25.982Z,1.01
2023-01-28T11:46:25.973Z,1.02
2023-01-28T11:47:25.961Z,1.01
2023-01-28T11:48:25.991Z,0.99
2023-01-28T11:49:25.932Z,0.96
2023-01-28T11:50:25.957Z,0.98
2023-01-28T11:51:25.919Z,0.98
2023-01-28T11:52:25.918Z,0.96
2023-01-28T11:53:26.951Z,0.98
2023-01-28T11:54:25.909Z,0.99
2023-01-28T11:55:25.912Z,0.98
2023-01-28T11:56:25.851Z,0.98
2023-01-28T11:57:25.885Z,1.02
2023-01-28T11:58:28.912Z,1.04
2023-01-28T11:59:25.881Z,1.06
2023-01-28T12:00:25.855Z,1.08
2023-01-28T12:01:25.836Z,1.10
2023-01-28T12:02:25.880Z,1.10
2023-01-28T12:03:25.824Z,1.12
2023-01-28T12:04:25.838Z,1.12
2023-01-28T12:05:25.802Z,1.10
2023-01-28T12:06:25.783Z,1.14
2023-01-28T12:07:25.775Z,1.16
2023-01-28T12:08:25.765Z,1.20
2023-01-28T12:09:25.916Z,1.19
2023-01-28T12:10:25.744Z,1.19
2023-01-28T12:11:25.736Z,1.20
2023-01-28T12:12:25.706Z,1.22
2023-01-28T12:13:29.739Z,1.22
2023-01-28T12:14:25.746Z,1.24
2023-01-28T12:15:25.702Z,1.23
2023-01-28T12:16:25.680Z,1.24
2023-01-28T12:17:26.401Z,1.28
2023-01-28T12:18:25.676Z,1.31
2023-01-28T12:19:25.629Z,1.32
2023-01-28T12:20:25.645Z,1.34
2023-01-28T12:21:25.646Z,1.37
2023-01-28T12:22:25.637Z,1.38
2023-01-28T12:23:25.621Z,1.38
2023-01-28T12:24:25.673Z,1.37
2023-01-28T12:25:25.647Z,1.35
2023-01-28T12:26:25.597Z,1.40
2023-01-28T12:27:25.570Z,1.41
2023-01-28T12:28:28.571Z,1.41
2023-01-28T12:29:25.567Z,1.41
2023-01-28T12:30:25.576Z,1.35
2023-01-28T12:31:25.555Z,1.35
2023-01-28T12:32:25.530Z,1.40
2023-01-28T12:33:25.498Z,1.42
2023-01-28T12:34:25.539Z,1.45
2023-01-28T12:35:25.484Z,1.44
2023-01-28T12:36:25.492Z,1.45
2023-01-28T12:37:25.473Z,1.44
2023-01-28T12:38:25.462Z,1.42
2023-01-28T12:39:25.461Z,1.42
2023-01-28T12:40:25.439Z,1.38
2023-01-28T12:41:25.440Z,1.35
2023-01-28T12:42:25.467Z,1.37
2023-01-28T12:43:28.427Z,1.38
2023-01-28T12:44:25.393Z,1.41
2023-01-28T12:45:25.445Z,1.44
2023-01-28T12:46:25.376Z,1.45
2023-01-28T12:47:25.357Z,1.45
2023-01-28T12:48:25.344Z,1.48
2023-01-28T12:49:25.324Z,1.49
2023-01-28T12:50:25.358Z,1.52
2023-01-28T12:51:25.330Z,1.56
2023-01-28T12:52:25.323Z,1.58
2023-01-28T12:53:25.366Z,1.56
2023-01-28T12:54:25.283Z,1.56
2023-01-28T12:55:25.504Z,1.58
2023-01-28T12:56:25.296Z,1.60
2023-01-28T12:57:25.276Z,1.60
2023-01-28T12:58:28.300Z,1.63
2023-01-28T12:59:25.324Z,1.62
2023-01-28T13:00:25.234Z,1.63
2023-01-28T13:01:25.249Z,1.63
2023-01-28T13:02:25.222Z,1.63
2023-01-28T13:03:25.275Z,1.67
2023-01-28T13:04:25.192Z,1.66
2023-01-28T13:05:25.205Z,1.67
2023-01-28T13:06:25.184Z,1.60
2023-01-28T13:07:25.170Z,1.63
2023-01-28T13:08:25.138Z,1.63
2023-01-28T13:09:25.415Z,1.62
2023-01-28T13:10:25.140Z,1.60
2023-01-28T13:11:25.132Z,1.63
2023-01-28T13:12:25.110Z,1.62
2023-01-28T13:13:28.115Z,1.62
2023-01-28T13:14:25.094Z,1.60
2023-01-28T13:15:25.151Z,1.59
2023-01-28T13:16:36.688Z,1.59
2023-01-28T13:17:25.074Z,1.60
2023-01-28T13:18:25.075Z,1.63
2023-01-28T13:19:25.070Z,1.63
2023-01-28T13:20:25.043Z,1.60
2023-01-28T13:21:25.063Z,1.53
2023-01-28T13:22:25.006Z,1.53
2023-01-28T13:23:25.058Z,1.50
2023-01-28T13:24:25.071Z,1.50
2023-01-28T13:25:24.994Z,1.53
2023-01-28T13:26:24.995Z,1.53
2023-01-28T13:27:24.986Z,1.56
2023-01-28T13:28:27.940Z,1.56
2023-01-28T13:29:24.979Z,1.58
2023-01-28T13:30:32.508Z,1.58
2023-01-28T13:32:50.286Z,1.58
2023-01-28T13:33:56.284Z,1.58
2023-01-28T13:34:48.244Z,1.55
2023-01-28T13:38:31.168Z,1.52
2023-01-28T13:39:29.383Z,1.50
2023-01-28T13:40:36.404Z,1.49
2023-01-28T13:41:29.329Z,1.48
2023-01-28T13:42:36.388Z,1.44
2023-01-28T13:43:37.555Z,1.42
2023-01-28T13:44:37.390Z,1.42
2023-01-28T13:45:37.549Z,1.44
2023-01-28T13:46:36.360Z,1.44
2023-01-28T13:47:36.347Z,1.44
2023-01-28T13:48:37.287Z,1.41
2023-01-28T13:49:38.356Z,1.42
2023-01-28T13:50:36.254Z,1.41
2023-01-28T13:51:39.250Z,1.41
2023-01-28T13:52:36.894Z,1.41
2023-01-28T13:53:36.232Z,1.41
2023-01-28T13:54:36.550Z,1.40
2023-01-28T13:55:44.343Z,1.41
2023-01-28T13:56:37.292Z,1.44
2023-01-28T13:57:36.231Z,1.44
2023-01-28T13:58:39.002Z,1.48
2023-01-28T13:59:29.149Z,1.44
2023-01-28T14:01:52.255Z,1.41
2023-01-28T14:02:59.024Z,1.38
2023-01-28T14:03:59.354Z,1.40
2023-01-28T14:05:00.010Z,1.40
2023-01-28T14:05:59.013Z,1.40
2023-01-28T14:06:51.988Z,1.37
2023-01-28T14:09:13.884Z,1.40
2023-01-28T14:10:21.476Z,1.38
2023-01-28T14:11:21.849Z,1.40
2023-01-28T14:12:21.818Z,1.40
2023-01-28T14:13:21.295Z,1.40
2023-01-28T14:16:48.284Z,1.48
2023-01-28T14:17:53.600Z,1.49
2023-01-28T14:18:53.785Z,1.48
2023-01-28T14:22:18.807Z,1.44
2023-01-28T14:23:18.755Z,1.42
2023-01-28T14:24:18.771Z,1.42
2023-01-28T14:26:44.085Z,1.44
2023-01-28T14:27:49.629Z,1.42
2023-01-28T14:28:50.122Z,1.41
2023-01-28T14:29:42.063Z,1.41
2023-01-28T14:30:49.167Z,1.38
2023-01-28T14:31:49.413Z,1.38
2023-01-28T14:34:03.912Z,1.38
2023-01-28T14:35:10.918Z,1.37
2023-01-28T14:36:11.417Z,1.35
2023-01-28T14:37:13.025Z,1.32
2023-01-28T14:38:11.380Z,1.30
2023-01-28T14:39:11.395Z,1.30
2023-01-28T14:40:11.094Z,1.28
2023-01-28T14:41:03.820Z,1.24
2023-01-28T14:42:10.831Z,1.26
2023-01-28T14:43:10.843Z,1.26
2023-01-28T14:44:03.813Z,1.28
2023-01-28T14:45:10.795Z,1.28
2023-01-28T14:46:05.015Z,1.26
2023-01-28T14:47:13.803Z,1.23
2023-01-28T14:48:03.791Z,1.24
2023-01-28T14:49:10.763Z,1.23
2023-01-28T14:50:11.025Z,1.24
2023-01-28T14:51:11.267Z,1.28
2023-01-28T14:52:11.227Z,1.28
2023-01-28T14:54:28.083Z,1.34
2023-01-28T14:55:34.367Z,1.31
2023-01-28T14:56:35.627Z,1.32
2023-01-28T14:57:26.064Z,1.32
2023-01-28T14:58:34.564Z,1.32
2023-01-28T14:59:26.027Z,1.32
2023-01-28T15:00:33.067Z,1.34
2023-01-28T15:01:26.051Z,1.35
2023-01-28T15:02:34.046Z,1.35
2023-01-28T15:03:26.221Z,1.32
2023-01-28T15:04:33.486Z,1.32
2023-01-28T15:05:26.004Z,1.31
2023-01-28T15:06:26.018Z,1.30
2023-01-28T15:07:35.987Z,1.30
2023-01-28T15:08:33.482Z,1.30
2023-01-28T15:09:25.963Z,1.30
2023-01-28T15:10:33.444Z,1.26
2023-01-28T15:11:25.932Z,1.24
2023-01-28T15:12:33.441Z,1.23
2023-01-28T15:13:25.943Z,1.22
2023-01-28T15:14:32.962Z,1.20
2023-01-28T15:15:25.864Z,1.20
2023-01-28T15:16:33.387Z,1.22
2023-01-28T15:17:32.870Z,1.22
2023-01-28T15:18:25.975Z,1.20
2023-01-28T15:19:25.874Z,1.19
2023-01-28T15:20:33.972Z,1.19
2023-01-28T15:21:25.833Z,1.17
2023-01-28T15:22:36.113Z,1.19